Breckenridge, Texas
Current Conditions -  °F | °C
As of 11:55 AM on Thursday 30 Oct 2014 (Local Time) from KBKD Reporting Station
Haze Haze  
Wind Chill: 75°   Ceiling: Unl
Heat Index: 75°   Visibility: 5mi
Dew Point: 58°   Wind: 6mph
Humidity: 55%   Direction: 200°SSW
Pressure: 30.14"   Gusts: NA
Location:  32.76°N, 98.9°W
Report Text: KBKD 301655Z AUTO 20005KT 5SM HZ CLR 24/14 A3014 RMK AO2 T02390144
Loading
Personal Weather Stations






























Interactive Weather Map
Tropical Storm Tracking
New forecast layout! Learn more

10-Day Weather Forecast

Advertisements
Track Severe Weather on mobile